createdAt,value
2022-12-25T00:03:24.105Z,0
2022-12-25T00:08:44.267Z,0
2022-12-25T00:14:01.466Z,0
2022-12-25T00:19:21.935Z,0
2022-12-25T00:24:39.354Z,0
2022-12-25T00:30:05.590Z,0
2022-12-25T00:35:23.090Z,0
2022-12-25T00:40:40.286Z,0
2022-12-25T00:45:59.648Z,0
2022-12-25T00:51:17.366Z,0
2022-12-25T00:56:34.632Z,0
2022-12-25T01:01:52.613Z,0
2022-12-25T01:07:10.238Z,0
2022-12-25T01:12:33.670Z,0
2022-12-25T01:17:51.057Z,0
2022-12-25T01:23:17.559Z,0
2022-12-25T01:28:35.136Z,0
2022-12-25T01:33:52.363Z,0
2022-12-25T01:39:10.248Z,0
2022-12-25T01:44:27.499Z,0
2022-12-25T01:49:45.059Z,0
2022-12-25T01:55:02.159Z,0
2022-12-25T02:00:26.398Z,0
2022-12-25T02:05:43.590Z,0
2022-12-25T02:11:00.768Z,0
2022-12-25T02:16:18.023Z,0
2022-12-25T02:21:35.214Z,0
2022-12-25T02:26:52.393Z,0
2022-12-25T02:32:09.667Z,0
2022-12-25T02:37:33.617Z,0
2022-12-25T02:42:53.094Z,0
2022-12-25T02:48:10.586Z,0
2022-12-25T02:53:29.922Z,0
2022-12-25T02:58:47.470Z,0
2022-12-25T03:04:04.746Z,0
2022-12-25T03:09:22.029Z,0
2022-12-25T03:14:46.315Z,0
2022-12-25T03:20:03.876Z,0
2022-12-25T03:25:21.508Z,0
2022-12-25T03:30:38.958Z,0
2022-12-25T03:35:56.260Z,0
2022-12-25T03:41:13.673Z,0
2022-12-25T03:46:31.116Z,0
2022-12-25T03:51:50.825Z,0
2022-12-25T03:57:12.886Z,0
2022-12-25T04:08:20.422Z,0
2022-12-25T04:13:37.692Z,0
2022-12-25T04:18:57.317Z,0
2022-12-25T04:24:14.790Z,0
2022-12-25T04:29:32.027Z,0
2022-12-25T04:34:49.348Z,0
2022-12-25T04:40:06.791Z,0
2022-12-25T04:45:23.966Z,0
2022-12-25T04:50:41.105Z,0
2022-12-25T04:55:58.903Z,0
2022-12-25T05:01:16.381Z,0
2022-12-25T05:06:33.617Z,0
2022-12-25T05:11:50.793Z,0
2022-12-25T05:17:08.242Z,0
2022-12-25T05:22:25.456Z,0
2022-12-25T05:27:43.829Z,0
2022-12-25T05:33:03.529Z,0
2022-12-25T05:38:20.750Z,0
2022-12-25T05:43:46.091Z,0
2022-12-25T05:49:03.946Z,0
2022-12-25T05:54:21.361Z,0
2022-12-25T05:59:38.535Z,0
2022-12-25T06:04:55.819Z,0
2022-12-25T06:10:13.041Z,0
2022-12-25T06:15:30.251Z,0
2022-12-25T06:20:47.429Z,0
2022-12-25T06:26:04.767Z,0
2022-12-25T06:31:22.196Z,0
2022-12-25T06:36:39.601Z,0
2022-12-25T06:41:56.871Z,0
2022-12-25T06:47:14.211Z,0
2022-12-25T06:52:31.643Z,0
2022-12-25T06:57:51.898Z,0
2022-12-25T07:03:09.321Z,0
2022-12-25T07:08:26.667Z,0
2022-12-25T07:13:44.107Z,0.5
2022-12-25T07:19:01.008Z,26.7
2022-12-25T07:24:17.964Z,28.7
2022-12-25T07:29:35.025Z,53.3
2022-12-25T07:34:52.019Z,90
2022-12-25T07:40:09.003Z,153.8
2022-12-25T07:45:25.959Z,177.9
2022-12-25T07:50:46.232Z,259.2
2022-12-25T07:56:03.380Z,338.3
2022-12-25T08:01:21.047Z,312.1
2022-12-25T08:06:38.242Z,316.3
2022-12-25T08:11:57.207Z,312.5
2022-12-25T08:17:14.033Z,348.3
2022-12-25T08:22:31.128Z,472.9
2022-12-25T08:27:55.620Z,702.9
2022-12-25T08:33:13.377Z,1135.8
2022-12-25T08:38:30.396Z,814.6
2022-12-25T08:43:52.830Z,524.2
2022-12-25T08:49:09.751Z,809.2
2022-12-25T08:54:26.598Z,412.5
2022-12-25T08:59:43.573Z,617.9
2022-12-25T09:05:00.609Z,831.7
2022-12-25T09:10:17.691Z,720.8
2022-12-25T09:15:34.596Z,550
2022-12-25T09:20:51.451Z,757.1
2022-12-25T09:26:08.579Z,884.6
2022-12-25T09:31:28.662Z,818.7
2022-12-25T09:36:54.963Z,1341.2
2022-12-25T09:42:12.161Z,1345.8
2022-12-25T09:47:29.169Z,1198.7
2022-12-25T09:52:46.035Z,1202.9
2022-12-25T09:58:02.886Z,2287.9
2022-12-25T10:03:19.988Z,1451.2
2022-12-25T10:08:36.954Z,820
2022-12-25T10:13:53.942Z,2222.1
2022-12-25T10:19:12.774Z,1307.1
2022-12-25T10:24:29.779Z,1533.8
2022-12-25T10:29:54.102Z,952.1
2022-12-25T10:35:11.165Z,1952.5
2022-12-25T10:40:28.139Z,1075.4
2022-12-25T10:45:45.104Z,1416.2
2022-12-25T10:51:02.423Z,2645
2022-12-25T10:56:19.806Z,3908.8
2022-12-25T11:01:37.023Z,5043.3
2022-12-25T11:06:54.236Z,4465.8
2022-12-25T11:12:28.550Z,1967.5
2022-12-25T11:17:45.737Z,1614.6
2022-12-25T11:23:05.238Z,1976.2
2022-12-25T11:28:22.849Z,2200.8
2022-12-25T11:33:47.303Z,2186.7
2022-12-25T11:39:04.805Z,2434.6
2022-12-25T11:44:21.749Z,2457.9
2022-12-25T11:49:50.167Z,2987.5
2022-12-25T11:55:07.958Z,3592.1
2022-12-25T12:00:26.534Z,1698.3
2022-12-25T12:05:43.703Z,2141.7
2022-12-25T12:11:00.777Z,2506.7
2022-12-25T12:16:20.872Z,4125.4
2022-12-25T12:21:38.131Z,4805
2022-12-25T12:26:55.096Z,5542.1
2022-12-25T12:32:12.140Z,3426.7
2022-12-25T12:37:29.090Z,4288.3
2022-12-25T12:42:46.005Z,3521.3
2022-12-25T12:53:24.002Z,4513.3
2022-12-25T12:58:40.734Z,3902.5
2022-12-25T13:04:00.672Z,3834.6
2022-12-25T13:09:17.619Z,3706.3
2022-12-25T13:14:34.473Z,3721.3
2022-12-25T13:19:51.482Z,4196.7
2022-12-25T13:25:08.482Z,4557.9
2022-12-25T13:30:25.631Z,2274.2
2022-12-25T13:35:42.584Z,2341.3
2022-12-25T13:40:59.525Z,3115
2022-12-25T13:46:19.500Z,2012.5
2022-12-25T13:51:37.125Z,1893.3
2022-12-25T13:56:54.098Z,1522.5
2022-12-25T14:02:11.098Z,1740.8
2022-12-25T14:07:28.222Z,1653.7
2022-12-25T14:12:47.834Z,1890.8
2022-12-25T14:18:05.261Z,1793.8
2022-12-25T14:23:24.513Z,717.9
2022-12-25T14:28:42.095Z,800
2022-12-25T14:34:06.125Z,1181.7
2022-12-25T14:39:23.398Z,1702.5
2022-12-25T14:44:42.849Z,983.3
2022-12-25T14:50:09.521Z,1062.9
2022-12-25T14:55:26.317Z,1282.9
2022-12-25T15:00:43.313Z,641.7
2022-12-25T15:06:00.180Z,627.1
2022-12-25T15:11:54.641Z,530.8
2022-12-25T15:17:12.136Z,412.9
2022-12-25T15:22:42.432Z,501.2
2022-12-25T15:28:13.086Z,417.1
2022-12-25T15:33:30.249Z,240.8
2022-12-25T15:38:47.421Z,160.4
2022-12-25T15:44:04.445Z,76.7
2022-12-25T15:49:21.265Z,39.6
2022-12-25T15:54:42.338Z,0.9
2022-12-25T15:59:59.703Z,0
2022-12-25T16:05:20.471Z,0
2022-12-25T16:10:39.064Z,0
2022-12-25T16:15:58.049Z,0
2022-12-25T16:21:15.443Z,0
2022-12-25T16:26:32.802Z,0
2022-12-25T16:31:50.120Z,0
2022-12-25T16:37:16.470Z,0
2022-12-25T16:42:33.653Z,0
2022-12-25T16:47:53.705Z,0
2022-12-25T16:53:20.372Z,0
2022-12-25T16:58:37.536Z,0
2022-12-25T17:03:54.864Z,0
2022-12-25T17:14:35.085Z,0
2022-12-25T17:19:52.395Z,0
2022-12-25T17:25:09.737Z,0
2022-12-25T17:30:27.188Z,0
2022-12-25T17:35:50.086Z,0
2022-12-25T17:41:08.799Z,0
2022-12-25T17:46:33.304Z,0
2022-12-25T17:51:50.868Z,0
2022-12-25T17:57:08.175Z,0
2022-12-25T18:02:25.814Z,0
2022-12-25T18:07:43.281Z,0
2022-12-25T18:13:00.415Z,0
2022-12-25T18:18:17.729Z,0
2022-12-25T18:23:35.095Z,0
2022-12-25T18:28:52.553Z,0
2022-12-25T18:34:09.833Z,0
2022-12-25T18:39:27.223Z,0
2022-12-25T18:44:44.741Z,0
2022-12-25T18:50:10.522Z,0
2022-12-25T18:55:36.592Z,0
2022-12-25T19:00:54.064Z,0
2022-12-25T19:06:11.559Z,0
2022-12-25T19:11:28.887Z,0
2022-12-25T19:16:46.357Z,0
2022-12-25T19:22:03.899Z,0
2022-12-25T19:27:21.114Z,0
2022-12-25T19:32:38.439Z,0
2022-12-25T19:38:06.964Z,0
2022-12-25T19:43:24.327Z,0
2022-12-25T19:48:41.520Z,0
2022-12-25T19:53:58.958Z,0
2022-12-25T19:59:16.443Z,0
2022-12-25T20:04:33.672Z,0
2022-12-25T20:09:51.060Z,0
2022-12-25T20:15:08.284Z,0
2022-12-25T20:21:02.855Z,0
2022-12-25T20:26:20.510Z,0
2022-12-25T20:31:37.877Z,0
2022-12-25T20:36:58.017Z,0
2022-12-25T20:42:15.192Z,0
2022-12-25T20:47:32.491Z,0
2022-12-25T20:52:49.855Z,0
2022-12-25T20:58:07.206Z,0
2022-12-25T21:03:24.815Z,0
2022-12-25T21:08:42.523Z,0
2022-12-25T21:13:59.725Z,0
2022-12-25T21:19:17.690Z,0
2022-12-25T21:24:34.861Z,0
2022-12-25T21:29:52.157Z,0
2022-12-25T21:35:10.132Z,0
2022-12-25T21:40:27.610Z,0
2022-12-25T21:45:45.097Z,0
2022-12-25T21:51:03.255Z,0
2022-12-25T21:56:27.814Z,0
2022-12-25T22:01:45.505Z,0
2022-12-25T22:07:03.063Z,0
2022-12-25T22:12:22.670Z,0
2022-12-25T22:17:40.061Z,0
2022-12-25T22:23:00.160Z,0
2022-12-25T22:28:17.820Z,0
2022-12-25T22:33:35.547Z,0
2022-12-25T22:38:55.964Z,0
2022-12-25T22:44:17.975Z,0
2022-12-25T22:49:35.775Z,0
2022-12-25T22:54:58.701Z,0
2022-12-25T23:00:17.426Z,0
2022-12-25T23:05:37.383Z,0
2022-12-25T23:10:54.745Z,0
2022-12-25T23:16:12.429Z,0
2022-12-25T23:21:33.289Z,0
2022-12-25T23:26:50.810Z,0
2022-12-25T23:32:10.242Z,0
2022-12-25T23:37:27.685Z,0
2022-12-25T23:42:55.494Z,0
2022-12-25T23:48:13.261Z,0
2022-12-25T23:53:30.622Z,0
2022-12-25T23:58:47.892Z,0
